Royalty, Texas
Current Conditions -  °F | °C
As of 7:53 AM on Thursday 30 Oct 2014 (Local Time) from KFST Reporting Station
Clear Clear  
Wind Chill: 57°   Ceiling: Unl
Heat Index: 57°   Visibility: 10mi
Dew Point: 54°   Wind: 9mph
Humidity: 89%   Direction: 200°SSW
Pressure: 30.14"   Gusts: NA
Location:  31.37°N, 102.87°W
Report Text: KFST 301253Z AUTO 20008KT 10SM CLR 14/12 A3014 RMK AO2 SLP172 T01390122
Loading
Personal Weather Stations






























Interactive Weather Map
Tropical Storm Tracking
New forecast layout! Learn more

10-Day Weather Forecast

Advertisements
Track Severe Weather on mobile